createdAt,value
2018-06-22T00:00:47.504Z,8.39
2018-06-22T00:01:47.486Z,8.44
2018-06-22T00:02:47.462Z,8.50
2018-06-22T00:03:47.443Z,8.45
2018-06-22T00:04:48.368Z,8.54
2018-06-22T00:05:48.967Z,8.54
2018-06-22T00:06:47.404Z,8.57
2018-06-22T00:07:47.399Z,8.66
2018-06-22T00:08:47.382Z,8.58
2018-06-22T00:09:47.346Z,8.68
2018-06-22T00:10:47.328Z,8.60
2018-06-22T00:11:47.305Z,8.62
2018-06-22T00:12:47.266Z,8.63
2018-06-22T00:13:47.238Z,8.62
2018-06-22T00:14:47.227Z,8.58
2018-06-22T00:15:47.211Z,8.72
2018-06-22T00:16:47.248Z,8.84
2018-06-22T00:17:47.169Z,8.91
2018-06-22T00:18:47.157Z,8.90
2018-06-22T00:19:47.141Z,9.10
2018-06-22T00:20:47.115Z,9.20
2018-06-22T00:21:47.096Z,9.31
2018-06-22T00:22:47.077Z,9.68
2018-06-22T00:23:47.054Z,9.89
2018-06-22T00:24:47.038Z,9.94
2018-06-22T00:25:47.013Z,9.99
2018-06-22T00:26:47.001Z,10.01
2018-06-22T00:27:47.014Z,10.03
2018-06-22T00:28:46.959Z,10.00
2018-06-22T00:29:46.937Z,9.97
2018-06-22T00:30:46.930Z,9.99
2018-06-22T00:31:46.901Z,9.93
2018-06-22T00:32:46.879Z,9.91
2018-06-22T00:33:46.863Z,9.82
2018-06-22T00:34:46.841Z,9.85
2018-06-22T00:35:46.831Z,9.79
2018-06-22T00:36:46.806Z,9.75
2018-06-22T00:37:46.787Z,9.73
2018-06-22T00:38:46.771Z,9.64
2018-06-22T00:39:46.751Z,9.58
2018-06-22T00:40:46.726Z,9.49
2018-06-22T00:41:46.706Z,9.56
2018-06-22T00:42:46.694Z,9.38
2018-06-22T00:43:46.675Z,9.38
2018-06-22T00:44:46.666Z,9.38
2018-06-22T00:45:46.637Z,9.30
2018-06-22T00:46:46.617Z,9.25
2018-06-22T00:47:46.595Z,9.18
2018-06-22T00:48:46.575Z,9.28
2018-06-22T00:49:46.567Z,9.21
2018-06-22T00:50:46.541Z,9.10
2018-06-22T00:51:46.518Z,9.12
2018-06-22T00:52:46.499Z,9.01
2018-06-22T00:53:46.483Z,8.99
2018-06-22T00:54:46.464Z,9.02
2018-06-22T00:55:46.438Z,8.94
2018-06-22T00:56:46.424Z,8.87
2018-06-22T00:57:46.405Z,8.87
2018-06-22T00:58:46.388Z,8.97
2018-06-22T00:59:46.381Z,8.91
2018-06-22T01:00:46.346Z,8.91
2018-06-22T01:01:46.349Z,8.93
2018-06-22T01:02:46.308Z,8.79
2018-06-22T01:03:46.293Z,8.84
2018-06-22T01:04:46.277Z,8.78
2018-06-22T01:05:46.254Z,8.62
2018-06-22T01:06:46.242Z,8.66
2018-06-22T01:07:46.220Z,8.60
2018-06-22T01:08:46.200Z,8.66
2018-06-22T01:09:46.178Z,8.68
2018-06-22T01:10:46.158Z,8.55
2018-06-22T01:11:46.133Z,8.57
2018-06-22T01:12:46.118Z,8.58
2018-06-22T01:13:46.108Z,8.51
2018-06-22T01:14:46.079Z,8.44
2018-06-22T01:15:46.063Z,8.47
2018-06-22T01:16:46.053Z,8.44
2018-06-22T01:17:46.020Z,8.40
2018-06-22T01:18:46.011Z,8.37
2018-06-22T01:19:45.981Z,8.26
2018-06-22T01:20:45.966Z,8.26
2018-06-22T01:21:45.947Z,8.11
2018-06-22T01:22:45.928Z,8.11
2018-06-22T01:23:45.958Z,8.11
2018-06-22T01:24:45.891Z,8.03
2018-06-22T01:25:45.871Z,8.11
2018-06-22T01:26:45.902Z,8.07
2018-06-22T01:27:45.836Z,8.10
2018-06-22T01:28:45.811Z,8.02
2018-06-22T01:29:45.796Z,8.02
2018-06-22T01:30:45.772Z,7.90
2018-06-22T01:31:45.755Z,7.89
2018-06-22T01:32:45.736Z,7.93
2018-06-22T01:33:45.724Z,7.82
2018-06-22T01:34:45.696Z,7.82
2018-06-22T01:35:45.676Z,7.82
2018-06-22T01:36:45.657Z,7.72
2018-06-22T01:37:45.637Z,7.79
2018-06-22T01:38:45.614Z,7.74
2018-06-22T01:39:45.595Z,7.67
2018-06-22T01:40:45.579Z,7.66
2018-06-22T01:41:45.556Z,7.55
2018-06-22T01:42:45.540Z,7.62
2018-06-22T01:43:45.518Z,7.53
2018-06-22T01:44:45.503Z,7.60
2018-06-22T01:45:45.477Z,7.56
2018-06-22T01:46:45.455Z,7.47
2018-06-22T01:47:45.441Z,7.56
2018-06-22T01:48:45.425Z,7.53
2018-06-22T01:49:45.393Z,7.45
2018-06-22T01:50:45.383Z,7.37
2018-06-22T01:51:45.364Z,7.27
2018-06-22T01:52:45.338Z,7.32
2018-06-22T01:53:45.332Z,7.29
2018-06-22T01:54:45.303Z,7.26
2018-06-22T01:55:45.277Z,7.32
2018-06-22T01:56:45.263Z,7.29
2018-06-22T01:57:45.239Z,7.24
2018-06-22T01:58:45.223Z,7.40
2018-06-22T01:59:45.204Z,7.37
2018-06-22T02:00:45.196Z,7.23
2018-06-22T02:01:45.170Z,7.26
2018-06-22T02:02:45.150Z,7.22
2018-06-22T02:03:45.130Z,7.19
2018-06-22T02:04:45.099Z,7.15
2018-06-22T02:05:45.127Z,7.15
2018-06-22T02:06:45.060Z,7.24
2018-06-22T02:07:45.050Z,7.31
2018-06-22T02:08:45.025Z,7.19
2018-06-22T02:09:45.014Z,7.22
2018-06-22T02:10:44.980Z,7.22
2018-06-22T02:11:44.972Z,7.20
2018-06-22T02:12:44.945Z,7.20
2018-06-22T02:13:44.929Z,7.09
2018-06-22T02:14:44.899Z,7.05
2018-06-22T02:15:44.885Z,7.05
2018-06-22T02:16:44.864Z,7.07
2018-06-22T02:17:44.846Z,7.07
2018-06-22T02:18:44.828Z,7.15
2018-06-22T02:19:44.805Z,7.01
2018-06-22T02:20:44.783Z,7.09
2018-06-22T02:21:44.767Z,6.99
2018-06-22T02:22:44.744Z,6.95
2018-06-22T02:23:44.726Z,6.97
2018-06-22T02:24:44.705Z,7.01
2018-06-22T02:25:44.678Z,7.07
2018-06-22T02:26:44.664Z,6.97
2018-06-22T02:27:44.645Z,6.89
2018-06-22T02:28:44.617Z,6.81
2018-06-22T02:29:44.604Z,6.79
2018-06-22T02:30:44.585Z,6.72
2018-06-22T02:31:44.566Z,6.73
2018-06-22T02:32:44.555Z,6.72
2018-06-22T02:33:44.524Z,6.66
2018-06-22T02:34:44.505Z,6.62
2018-06-22T02:35:44.483Z,6.63
2018-06-22T02:36:44.460Z,6.66
2018-06-22T02:37:44.438Z,6.81
2018-06-22T02:38:44.422Z,6.87
2018-06-22T02:39:44.409Z,6.81
2018-06-22T02:40:44.393Z,6.84
2018-06-22T02:41:44.365Z,6.84
2018-06-22T02:42:44.341Z,6.83
2018-06-22T02:43:44.327Z,6.84
2018-06-22T02:44:44.297Z,6.84
2018-06-22T02:45:44.282Z,6.77
2018-06-22T02:46:44.263Z,6.72
2018-06-22T02:47:44.235Z,6.77
2018-06-22T02:48:44.217Z,6.84
2018-06-22T02:49:44.208Z,6.77
2018-06-22T02:50:44.176Z,6.79
2018-06-22T02:51:44.157Z,6.81
2018-06-22T02:52:44.135Z,6.83
2018-06-22T02:53:44.116Z,6.87
2018-06-22T02:54:44.103Z,6.83
2018-06-22T02:55:44.077Z,6.83
2018-06-22T02:56:44.061Z,6.79
2018-06-22T02:57:44.039Z,6.69
2018-06-22T02:58:44.021Z,6.61
2018-06-22T02:59:44.046Z,6.53
2018-06-22T03:00:43.972Z,6.47
2018-06-22T03:01:43.976Z,6.32
2018-06-22T03:02:43.934Z,6.38
2018-06-22T03:03:43.912Z,6.43
2018-06-22T03:04:43.893Z,6.46
2018-06-22T03:05:43.877Z,6.44
2018-06-22T03:06:43.861Z,6.46
2018-06-22T03:07:43.829Z,6.54
2018-06-22T03:08:43.833Z,6.38
2018-06-22T03:09:43.810Z,6.44
2018-06-22T03:10:43.769Z,6.40
2018-06-22T03:11:43.752Z,6.32
2018-06-22T03:12:43.734Z,6.28
2018-06-22T03:13:43.708Z,6.36
2018-06-22T03:14:43.685Z,6.32
2018-06-22T03:15:43.670Z,6.33
2018-06-22T03:16:43.651Z,6.32
2018-06-22T03:17:43.630Z,6.32
2018-06-22T03:18:43.614Z,6.32
2018-06-22T03:19:43.605Z,6.33
2018-06-22T03:20:43.566Z,6.29
2018-06-22T03:21:43.547Z,6.38
2018-06-22T03:22:43.531Z,6.35
2018-06-22T03:23:43.508Z,6.38
2018-06-22T03:24:43.483Z,6.50
2018-06-22T03:25:43.468Z,6.47
2018-06-22T03:26:43.448Z,6.54
2018-06-22T03:27:43.423Z,6.33
2018-06-22T03:28:43.407Z,6.51
2018-06-22T03:29:43.391Z,6.50
2018-06-22T03:30:43.369Z,6.54
2018-06-22T03:31:43.343Z,6.62
2018-06-22T03:32:43.321Z,6.66
2018-06-22T03:33:43.305Z,6.69
2018-06-22T03:34:43.282Z,6.72
2018-06-22T03:35:43.257Z,6.71
2018-06-22T03:36:43.241Z,6.66
2018-06-22T03:37:43.224Z,6.81
2018-06-22T03:38:43.199Z,6.83
2018-06-22T03:39:43.176Z,6.94
2018-06-22T03:40:43.155Z,7.04
2018-06-22T03:41:43.138Z,7.08
2018-06-22T03:42:43.118Z,7.20
2018-06-22T03:43:43.099Z,7.22
2018-06-22T03:44:43.084Z,7.35
2018-06-22T03:45:43.055Z,7.29
2018-06-22T03:46:43.039Z,7.29
2018-06-22T03:47:43.019Z,7.44
2018-06-22T03:48:42.997Z,7.53
2018-06-22T03:49:42.980Z,7.75
2018-06-22T03:50:42.955Z,7.78
2018-06-22T03:51:42.939Z,7.90
2018-06-22T03:52:42.910Z,8.03
2018-06-22T03:53:42.894Z,8.10
2018-06-22T03:54:42.877Z,8.37
2018-06-22T03:55:42.859Z,8.47
2018-06-22T03:56:42.875Z,8.60
2018-06-22T03:57:42.807Z,8.72
2018-06-22T03:58:42.798Z,8.79
2018-06-22T03:59:42.769Z,8.88
2018-06-22T04:00:42.758Z,8.94
2018-06-22T04:01:42.731Z,8.97
2018-06-22T04:02:42.718Z,9.09
2018-06-22T04:03:42.692Z,9.10
2018-06-22T04:04:42.679Z,9.16
2018-06-22T04:05:42.657Z,9.25
2018-06-22T04:06:42.638Z,9.20
2018-06-22T04:07:42.619Z,9.32
2018-06-22T04:08:42.596Z,9.42
2018-06-22T04:09:42.573Z,9.50
2018-06-22T04:10:42.561Z,9.57
2018-06-22T04:11:42.538Z,9.63
2018-06-22T04:12:42.523Z,9.83
2018-06-22T04:13:42.506Z,9.85
2018-06-22T04:14:42.486Z,10.01
2018-06-22T04:15:42.507Z,10.06
2018-06-22T04:16:42.452Z,10.17
2018-06-22T04:17:42.421Z,10.22
2018-06-22T04:18:42.405Z,10.24
2018-06-22T04:19:42.389Z,10.25
2018-06-22T04:20:42.374Z,10.19
2018-06-22T04:21:42.354Z,10.26
2018-06-22T04:22:42.335Z,10.24
2018-06-22T04:23:42.309Z,10.25
2018-06-22T04:24:42.291Z,10.25
2018-06-22T04:25:42.271Z,10.21
2018-06-22T04:26:42.258Z,10.21
2018-06-22T04:27:42.234Z,10.28
2018-06-22T04:28:42.221Z,10.26
2018-06-22T04:29:42.198Z,10.25
2018-06-22T04:30:42.179Z,10.19
2018-06-22T04:31:42.173Z,10.24
2018-06-22T04:32:42.144Z,10.14
2018-06-22T04:33:42.125Z,10.21
2018-06-22T04:34:42.116Z,10.19
2018-06-22T04:35:42.096Z,10.24
2018-06-22T04:36:42.074Z,10.24
2018-06-22T04:37:42.052Z,10.25
2018-06-22T04:38:42.112Z,10.21
2018-06-22T04:39:42.020Z,10.28
2018-06-22T04:40:42.005Z,10.26
2018-06-22T04:41:41.981Z,10.25
2018-06-22T04:42:41.956Z,10.25
2018-06-22T04:43:41.957Z,10.21
2018-06-22T04:44:41.928Z,10.25
2018-06-22T04:45:41.908Z,10.25
2018-06-22T04:46:41.889Z,10.32
2018-06-22T04:47:41.945Z,10.30
2018-06-22T04:48:41.853Z,10.33
2018-06-22T04:49:41.840Z,10.21
2018-06-22T04:50:41.822Z,10.28
2018-06-22T04:51:41.792Z,10.21
2018-06-22T04:52:41.783Z,10.32
2018-06-22T04:53:41.764Z,10.32
2018-06-22T04:54:41.748Z,10.39
2018-06-22T04:55:41.725Z,10.44
2018-06-22T04:56:41.708Z,10.53
2018-06-22T04:57:41.691Z,10.55
2018-06-22T04:58:41.669Z,10.53
2018-06-22T04:59:41.655Z,10.71
2018-06-22T05:00:41.639Z,10.65
2018-06-22T05:01:41.615Z,10.78
2018-06-22T05:02:41.611Z,10.81
2018-06-22T05:03:41.653Z,11.01
2018-06-22T05:04:41.561Z,11.09
2018-06-22T05:05:41.538Z,11.19
2018-06-22T05:06:41.523Z,11.24
2018-06-22T05:07:41.507Z,11.28
2018-06-22T05:08:41.510Z,11.25
2018-06-22T05:09:41.471Z,11.34
2018-06-22T05:10:41.469Z,11.39
2018-06-22T05:11:41.440Z,11.38
2018-06-22T05:12:41.417Z,11.46
2018-06-22T05:13:41.398Z,11.46
2018-06-22T05:14:41.373Z,11.56
2018-06-22T05:15:41.367Z,11.70
2018-06-22T05:16:41.355Z,11.70
2018-06-22T05:17:41.368Z,11.82
2018-06-22T05:18:41.332Z,11.93
2018-06-22T05:19:41.306Z,11.86
2018-06-22T05:20:41.276Z,11.85
2018-06-22T05:21:41.267Z,11.93
2018-06-22T05:22:41.263Z,11.90
2018-06-22T05:23:41.225Z,11.93
2018-06-22T05:24:41.245Z,11.96
2018-06-22T05:25:41.193Z,12.05
2018-06-22T05:26:41.177Z,11.97
2018-06-22T05:27:41.156Z,12.01
2018-06-22T05:28:41.131Z,12.02
2018-06-22T05:29:41.123Z,12.05
2018-06-22T05:30:41.096Z,11.99
2018-06-22T05:31:41.093Z,11.97
2018-06-22T05:32:41.076Z,12.04
2018-06-22T05:33:41.045Z,12.01
2018-06-22T05:34:41.034Z,11.97
2018-06-22T05:35:41.017Z,12.24
2018-06-22T05:36:40.995Z,12.26
2018-06-22T05:37:40.982Z,12.19
2018-06-22T05:38:40.954Z,12.19
2018-06-22T05:39:40.941Z,12.11
2018-06-22T05:40:40.932Z,12.15
2018-06-22T05:41:40.906Z,12.21
2018-06-22T05:42:40.887Z,12.15
2018-06-22T05:43:40.881Z,12.30
2018-06-22T05:44:40.857Z,12.44
2018-06-22T05:45:40.842Z,12.44
2018-06-22T05:46:40.828Z,12.39
2018-06-22T05:47:40.806Z,12.44
2018-06-22T05:48:40.796Z,12.49
2018-06-22T05:49:40.780Z,12.51
2018-06-22T05:50:40.774Z,12.52
2018-06-22T05:51:40.739Z,12.54
2018-06-22T05:52:40.722Z,12.62
2018-06-22T05:53:40.707Z,12.67
2018-06-22T05:54:40.687Z,12.67
2018-06-22T05:55:40.675Z,12.75
2018-06-22T05:56:40.699Z,12.82
2018-06-22T05:57:40.642Z,12.85
2018-06-22T05:58:40.611Z,12.97
2018-06-22T05:59:40.606Z,12.99
2018-06-22T06:00:40.589Z,13.09
2018-06-22T06:01:40.564Z,13.17
2018-06-22T06:02:40.552Z,13.32
2018-06-22T06:03:40.547Z,13.27
2018-06-22T06:04:40.520Z,13.36
2018-06-22T06:05:40.504Z,13.52
2018-06-22T06:06:40.499Z,13.51
2018-06-22T06:07:40.470Z,13.56
2018-06-22T06:08:40.456Z,13.38
2018-06-22T06:09:40.440Z,13.29
2018-06-22T06:10:40.421Z,13.36
2018-06-22T06:11:40.411Z,13.37
2018-06-22T06:12:40.417Z,13.24
2018-06-22T06:13:40.384Z,13.15
2018-06-22T06:14:40.372Z,13.04
2018-06-22T06:15:40.355Z,13.03
2018-06-22T06:16:40.331Z,12.99
2018-06-22T06:17:40.312Z,12.99
2018-06-22T06:18:40.293Z,13.00
2018-06-22T06:19:40.280Z,13.00
2018-06-22T06:20:40.258Z,13.03
2018-06-22T06:21:40.245Z,13.09
2018-06-22T06:22:40.231Z,13.04
2018-06-22T06:23:40.209Z,12.92
2018-06-22T06:24:40.199Z,12.85
2018-06-22T06:25:40.193Z,13.04
2018-06-22T06:26:40.171Z,13.21
2018-06-22T06:27:40.158Z,13.30
2018-06-22T06:28:40.135Z,13.40
2018-06-22T06:29:40.113Z,13.55
2018-06-22T06:30:40.101Z,13.73
2018-06-22T06:31:40.084Z,13.83
2018-06-22T06:32:40.086Z,13.70
2018-06-22T06:33:40.064Z,13.58
2018-06-22T06:34:40.045Z,13.70
2018-06-22T06:35:40.032Z,13.77
2018-06-22T06:36:40.008Z,13.92
2018-06-22T06:37:39.994Z,14.17
2018-06-22T06:38:39.982Z,14.53
2018-06-22T06:39:39.978Z,14.75
2018-06-22T06:40:39.943Z,14.69
2018-06-22T06:41:39.930Z,14.44
2018-06-22T06:42:39.910Z,14.21
2018-06-22T06:43:39.901Z,14.09
2018-06-22T06:44:39.895Z,14.01
2018-06-22T06:45:39.863Z,13.91
2018-06-22T06:46:39.860Z,13.95
2018-06-22T06:47:39.840Z,13.89
2018-06-22T06:48:39.822Z,13.76
2018-06-22T06:49:39.890Z,13.65
2018-06-22T06:50:39.800Z,13.55
2018-06-22T06:51:39.780Z,13.46
2018-06-22T06:52:39.767Z,13.37
2018-06-22T06:53:39.748Z,13.32
2018-06-22T06:54:39.732Z,13.27
2018-06-22T06:55:39.723Z,13.17
2018-06-22T06:56:39.717Z,13.21
2018-06-22T06:57:39.694Z,13.17
2018-06-22T06:58:39.678Z,13.25
2018-06-22T06:59:39.659Z,13.22
2018-06-22T07:00:39.646Z,13.41
2018-06-22T07:01:39.640Z,13.36
2018-06-22T07:02:39.625Z,13.30
2018-06-22T07:03:39.605Z,13.27
2018-06-22T07:04:39.582Z,13.40
2018-06-22T07:05:39.572Z,13.41
2018-06-22T07:06:39.557Z,13.44
2018-06-22T07:07:39.547Z,13.43
2018-06-22T07:08:39.531Z,13.37
2018-06-22T07:09:39.512Z,13.36
2018-06-22T07:10:39.496Z,13.38
2018-06-22T07:11:39.485Z,13.55
2018-06-22T07:12:39.468Z,13.73
2018-06-22T07:13:39.448Z,13.80
2018-06-22T07:14:39.442Z,14.09
2018-06-22T07:15:39.423Z,14.37
2018-06-22T07:16:39.401Z,14.32
2018-06-22T07:17:39.400Z,14.43
2018-06-22T07:18:39.371Z,14.52
2018-06-22T07:19:39.361Z,14.65
2018-06-22T07:20:39.359Z,14.53
2018-06-22T07:21:39.327Z,14.64
2018-06-22T07:22:39.317Z,14.75
2018-06-22T07:23:39.295Z,14.90
2018-06-22T07:24:39.295Z,14.78
2018-06-22T07:25:39.279Z,14.61
2018-06-22T07:26:39.272Z,14.47
2018-06-22T07:27:39.250Z,14.47
2018-06-22T07:28:39.240Z,14.43
2018-06-22T07:29:39.222Z,14.50
2018-06-22T07:30:39.260Z,14.60
2018-06-22T07:31:39.190Z,14.80
2018-06-22T07:32:39.181Z,14.98
2018-06-22T07:33:39.162Z,15.03
2018-06-22T07:34:39.152Z,15.02
2018-06-22T07:35:39.139Z,15.03
2018-06-22T07:36:39.126Z,14.91
2018-06-22T07:37:39.110Z,14.88
2018-06-22T07:38:39.110Z,14.75
2018-06-22T07:39:39.081Z,14.80
2018-06-22T07:40:39.073Z,14.74
2018-06-22T07:41:39.062Z,14.78
2018-06-22T07:42:39.043Z,14.72
2018-06-22T07:43:39.035Z,14.64
2018-06-22T07:44:39.012Z,14.65
2018-06-22T07:45:39.003Z,14.72
2018-06-22T07:46:39.012Z,14.74
2018-06-22T07:47:38.993Z,14.83
2018-06-22T07:48:38.970Z,14.91
2018-06-22T07:49:38.948Z,14.98
2018-06-22T07:50:38.938Z,14.91
2018-06-22T07:51:38.922Z,14.94
2018-06-22T07:52:38.922Z,14.93
2018-06-22T07:53:38.900Z,15.05
2018-06-22T07:54:38.890Z,15.05
2018-06-22T07:55:38.866Z,14.93
2018-06-22T07:56:38.852Z,15.11
2018-06-22T07:57:38.857Z,15.42
2018-06-22T07:58:38.857Z,16.09
2018-06-22T07:59:38.816Z,16.37
2018-06-22T08:00:38.800Z,16.56
2018-06-22T08:01:38.809Z,16.68
2018-06-22T08:02:38.781Z,17.00
2018-06-22T08:03:38.788Z,17.47
2018-06-22T08:04:38.758Z,17.43
2018-06-22T08:05:38.739Z,17.43
2018-06-22T08:06:38.733Z,17.13
2018-06-22T08:07:38.733Z,16.98
2018-06-22T08:08:38.728Z,17.15
2018-06-22T08:09:38.697Z,17.04
2018-06-22T08:10:38.681Z,16.83
2018-06-22T08:11:38.675Z,16.68
2018-06-22T08:12:38.662Z,16.48
2018-06-22T08:13:38.656Z,16.48
2018-06-22T08:14:38.637Z,16.45
2018-06-22T08:15:38.628Z,16.37
2018-06-22T08:16:38.614Z,16.22
2018-06-22T08:17:38.656Z,16.20
2018-06-22T08:18:38.594Z,16.09
2018-06-22T08:19:38.587Z,15.88
2018-06-22T08:20:38.579Z,15.82
2018-06-22T08:21:38.566Z,15.74
2018-06-22T08:22:38.556Z,15.57
2018-06-22T08:23:38.583Z,15.51
2018-06-22T08:24:38.524Z,15.45
2018-06-22T08:25:38.534Z,15.30
2018-06-22T08:26:38.503Z,15.27
2018-06-22T08:27:38.495Z,15.27
2018-06-22T08:28:38.482Z,15.24
2018-06-22T08:29:38.474Z,15.12
2018-06-22T08:30:38.456Z,15.08
2018-06-22T08:31:38.449Z,15.20
2018-06-22T08:32:38.433Z,15.15
2018-06-22T08:33:38.423Z,15.13
2018-06-22T08:34:38.415Z,15.24
2018-06-22T08:35:38.394Z,15.26
2018-06-22T08:36:38.384Z,15.33
2018-06-22T08:37:38.376Z,15.45
2018-06-22T08:38:38.368Z,15.61
2018-06-22T08:39:38.349Z,15.81
2018-06-22T08:40:38.337Z,15.99
2018-06-22T08:41:38.337Z,16.11
2018-06-22T08:42:38.308Z,16.27
2018-06-22T08:43:38.298Z,16.20
2018-06-22T08:44:38.285Z,16.22
2018-06-22T08:45:38.296Z,16.20
2018-06-22T08:46:38.269Z,16.33
2018-06-22T08:47:38.254Z,16.30
2018-06-22T08:48:38.233Z,16.07
2018-06-22T08:49:38.224Z,15.79
2018-06-22T08:50:38.208Z,15.76
2018-06-22T08:51:38.202Z,15.79
2018-06-22T08:52:38.189Z,15.60
2018-06-22T08:53:38.195Z,15.60
2018-06-22T08:54:38.166Z,15.46
2018-06-22T08:55:38.201Z,15.33
2018-06-22T08:56:38.164Z,15.23
2018-06-22T08:57:38.123Z,15.21
2018-06-22T08:58:38.118Z,15.09
2018-06-22T08:59:38.102Z,15.09
2018-06-22T09:00:38.090Z,15.13
2018-06-22T09:01:38.080Z,15.26
2018-06-22T09:02:38.061Z,15.27
2018-06-22T09:03:38.051Z,15.39
2018-06-22T09:04:38.032Z,15.43
2018-06-22T09:05:38.025Z,15.43
2018-06-22T09:06:38.016Z,15.57
2018-06-22T09:07:38.000Z,15.64
2018-06-22T09:08:38.013Z,15.70
2018-06-22T09:09:37.971Z,15.74
2018-06-22T09:10:37.962Z,15.85
2018-06-22T09:11:37.954Z,15.99
2018-06-22T09:12:37.953Z,16.01
2018-06-22T09:13:38.019Z,16.01
2018-06-22T09:14:37.997Z,15.82
2018-06-22T09:15:37.897Z,15.76
2018-06-22T09:16:37.888Z,15.68
2018-06-22T09:17:37.872Z,15.61
2018-06-22T09:18:37.871Z,15.42
2018-06-22T09:19:37.864Z,15.41
2018-06-22T09:20:37.838Z,15.27
2018-06-22T09:21:37.833Z,15.27
2018-06-22T09:22:37.807Z,15.11
2018-06-22T09:23:37.799Z,15.12
2018-06-22T09:24:37.784Z,15.08
2018-06-22T09:25:37.773Z,15.17
2018-06-22T09:26:37.768Z,15.27
2018-06-22T09:27:37.769Z,15.26
2018-06-22T09:28:37.743Z,15.35
2018-06-22T09:29:37.733Z,15.48
2018-06-22T09:30:37.709Z,15.35
2018-06-22T09:31:37.708Z,15.46
2018-06-22T09:32:37.686Z,15.56
2018-06-22T09:33:37.687Z,15.57
2018-06-22T09:34:37.654Z,15.46
2018-06-22T09:35:37.640Z,15.27
2018-06-22T09:36:37.641Z,15.12
2018-06-22T09:37:37.654Z,15.19
2018-06-22T09:38:37.605Z,14.94
2018-06-22T09:39:37.591Z,15.06
2018-06-22T09:40:37.582Z,15.12
2018-06-22T09:41:37.579Z,15.20
2018-06-22T09:42:37.626Z,15.26
2018-06-22T09:43:37.584Z,15.46
2018-06-22T09:44:37.530Z,15.56
2018-06-22T09:45:37.527Z,15.61
2018-06-22T09:46:37.508Z,15.68
2018-06-22T09:47:37.497Z,15.99
2018-06-22T09:48:37.483Z,15.92
2018-06-22T09:49:37.484Z,15.72
2018-06-22T09:50:37.467Z,15.63
2018-06-22T09:51:37.439Z,15.57
2018-06-22T09:52:37.422Z,15.51
2018-06-22T09:53:37.413Z,15.76
2018-06-22T09:54:37.400Z,15.81
2018-06-22T09:55:37.386Z,15.81
2018-06-22T09:56:37.378Z,15.84
2018-06-22T09:57:37.372Z,15.84
2018-06-22T09:58:37.345Z,15.92
2018-06-22T09:59:37.352Z,15.81
2018-06-22T10:00:37.330Z,15.79
2018-06-22T10:01:37.323Z,15.70
2018-06-22T10:02:37.298Z,15.84
2018-06-22T10:03:37.295Z,15.94
2018-06-22T10:04:37.290Z,15.88
2018-06-22T10:05:37.284Z,15.97
2018-06-22T10:06:37.252Z,16.12
2018-06-22T10:07:37.247Z,16.09
2018-06-22T10:08:37.233Z,16.06
2018-06-22T10:09:37.224Z,16.01
2018-06-22T10:10:37.209Z,16.11
2018-06-22T10:11:37.189Z,15.88
2018-06-22T10:12:37.180Z,15.81
2018-06-22T10:13:37.200Z,15.86
2018-06-22T10:14:37.158Z,15.85
2018-06-22T10:15:37.151Z,15.75
2018-06-22T10:16:37.131Z,15.59
2018-06-22T10:17:37.123Z,15.67
2018-06-22T10:18:37.105Z,15.72
2018-06-22T10:19:37.152Z,15.70
2018-06-22T10:20:37.095Z,15.82
2018-06-22T10:21:37.070Z,15.86
2018-06-22T10:22:37.064Z,15.96
2018-06-22T10:23:37.050Z,15.67
2018-06-22T10:24:37.032Z,15.61
2018-06-22T10:25:37.024Z,15.31
2018-06-22T10:26:37.021Z,15.24
2018-06-22T10:27:37.000Z,15.23
2018-06-22T10:28:36.988Z,15.08
2018-06-22T10:29:37.003Z,15.17
2018-06-22T10:30:36.957Z,15.11
2018-06-22T10:31:36.966Z,15.09
2018-06-22T10:32:36.930Z,15.02
2018-06-22T10:33:36.924Z,14.93
2018-06-22T10:34:36.909Z,15.05
2018-06-22T10:35:36.912Z,15.06
2018-06-22T10:36:36.889Z,15.06
2018-06-22T10:37:36.868Z,15.15
2018-06-22T10:38:36.854Z,15.09
2018-06-22T10:39:36.873Z,15.24
2018-06-22T10:40:36.829Z,15.46
2018-06-22T10:41:36.824Z,15.48
2018-06-22T10:42:36.809Z,15.61
2018-06-22T10:43:36.785Z,15.61
2018-06-22T10:44:36.779Z,15.63
2018-06-22T10:45:36.762Z,15.70
2018-06-22T10:46:36.774Z,15.82
2018-06-22T10:47:36.740Z,15.81
2018-06-22T10:48:36.724Z,15.88
2018-06-22T10:49:36.711Z,16.00
2018-06-22T10:50:36.698Z,16.06
2018-06-22T10:51:36.757Z,15.94
2018-06-22T10:52:36.710Z,15.89
2018-06-22T10:53:36.654Z,15.89
2018-06-22T10:54:36.641Z,15.92
2018-06-22T10:55:36.633Z,15.86
2018-06-22T10:56:36.616Z,15.92
2018-06-22T10:57:36.606Z,15.84
2018-06-22T10:58:36.590Z,15.64
2018-06-22T10:59:36.627Z,15.61
2018-06-22T11:00:36.568Z,15.59
2018-06-22T11:01:36.552Z,15.54
2018-06-22T11:02:36.542Z,15.66
2018-06-22T11:03:36.529Z,15.89
2018-06-22T11:04:36.520Z,16.01
2018-06-22T11:05:36.547Z,16.16
2018-06-22T11:06:36.488Z,16.23
2018-06-22T11:07:36.498Z,16.18
2018-06-22T11:08:36.467Z,16.09
2018-06-22T11:09:36.459Z,16.03
2018-06-22T11:10:36.446Z,15.96
2018-06-22T11:11:36.429Z,15.84
2018-06-22T11:12:36.413Z,15.70
2018-06-22T11:13:36.407Z,15.60
2018-06-22T11:14:36.399Z,15.56
2018-06-22T11:15:36.398Z,15.54
2018-06-22T11:16:36.372Z,15.51
2018-06-22T11:17:36.372Z,15.42
2018-06-22T11:18:36.343Z,15.33
2018-06-22T11:19:36.337Z,15.51
2018-06-22T11:20:36.347Z,15.57
2018-06-22T11:21:36.296Z,15.79
2018-06-22T11:22:36.311Z,16.01
2018-06-22T11:23:36.279Z,16.11
2018-06-22T11:24:36.352Z,16.07
2018-06-22T11:25:36.247Z,16.35
2018-06-22T11:26:36.239Z,16.48
2018-06-22T11:27:36.244Z,16.74
2018-06-22T11:28:36.226Z,16.90
2018-06-22T11:29:36.216Z,17.04
2018-06-22T11:30:36.191Z,17.08
2018-06-22T11:31:36.175Z,17.06
2018-06-22T11:32:36.236Z,17.07
2018-06-22T11:33:36.169Z,17.06
2018-06-22T11:34:36.206Z,17.06
2018-06-22T11:35:36.305Z,17.14
2018-06-22T11:36:36.138Z,17.07
2018-06-22T11:37:36.108Z,17.08
2018-06-22T11:38:36.094Z,17.18
2018-06-22T11:39:36.098Z,17.48
2018-06-22T11:40:36.072Z,17.50
2018-06-22T11:41:36.097Z,17.85
2018-06-22T11:42:36.055Z,17.85
2018-06-22T11:43:36.054Z,17.88
2018-06-22T11:44:36.027Z,17.89
2018-06-22T11:45:36.021Z,17.74
2018-06-22T11:46:36.015Z,17.67
2018-06-22T11:47:35.999Z,17.38
2018-06-22T11:48:35.998Z,17.06
2018-06-22T11:49:36.021Z,16.89
2018-06-22T11:50:35.976Z,16.85
2018-06-22T11:51:35.960Z,16.75
2018-06-22T11:52:35.950Z,16.56
2018-06-22T11:53:35.938Z,16.59
2018-06-22T11:54:35.928Z,16.80
2018-06-22T11:55:35.909Z,17.06
2018-06-22T11:56:35.918Z,17.15
2018-06-22T11:57:35.900Z,17.17
2018-06-22T11:58:35.877Z,17.14
2018-06-22T11:59:35.867Z,16.92
2018-06-22T12:00:35.871Z,16.68
2018-06-22T12:01:35.907Z,16.45
2018-06-22T12:02:35.835Z,16.44
2018-06-22T12:03:35.831Z,16.23
2018-06-22T12:04:35.838Z,16.18
2018-06-22T12:05:35.800Z,16.26
2018-06-22T12:06:35.796Z,16.30
2018-06-22T12:07:35.777Z,16.52
2018-06-22T12:08:35.767Z,16.53
2018-06-22T12:09:35.755Z,16.85
2018-06-22T12:10:35.742Z,17.17
2018-06-22T12:11:35.743Z,17.33
2018-06-22T12:12:35.722Z,17.71
2018-06-22T12:13:35.706Z,17.88
2018-06-22T12:14:35.703Z,17.92
2018-06-22T12:15:35.687Z,17.94
2018-06-22T12:16:35.684Z,18.17
2018-06-22T12:17:35.665Z,18.10
2018-06-22T12:18:35.655Z,17.97
2018-06-22T12:19:35.646Z,18.06
2018-06-22T12:20:35.629Z,18.03
2018-06-22T12:21:35.626Z,17.99
2018-06-22T12:22:35.620Z,17.97
2018-06-22T12:23:35.606Z,17.91
2018-06-22T12:24:35.592Z,18.02
2018-06-22T12:25:35.588Z,18.22
2018-06-22T12:26:35.582Z,18.24
2018-06-22T12:27:35.608Z,18.44
2018-06-22T12:28:35.591Z,18.33
2018-06-22T12:29:35.538Z,18.21
2018-06-22T12:30:35.530Z,18.24
2018-06-22T12:31:35.524Z,17.99
2018-06-22T12:32:35.508Z,17.71
2018-06-22T12:33:35.501Z,17.47
2018-06-22T12:34:35.495Z,17.29
2018-06-22T12:35:35.479Z,17.11
2018-06-22T12:36:35.482Z,17.10
2018-06-22T12:37:35.466Z,16.98
2018-06-22T12:38:35.512Z,16.85
2018-06-22T12:39:35.454Z,16.70
2018-06-22T12:40:35.430Z,16.44
2018-06-22T12:41:35.428Z,16.41
2018-06-22T12:42:35.411Z,16.34
2018-06-22T12:43:35.396Z,16.34
2018-06-22T12:44:35.393Z,16.34
2018-06-22T12:45:35.383Z,16.50
2018-06-22T12:46:35.360Z,16.45
2018-06-22T12:47:35.357Z,16.40
2018-06-22T12:48:35.344Z,16.42
2018-06-22T12:49:35.328Z,16.38
2018-06-22T12:50:35.347Z,16.34
2018-06-22T12:51:35.306Z,16.26
2018-06-22T12:52:35.297Z,16.31
2018-06-22T12:53:35.290Z,16.30
2018-06-22T12:54:35.271Z,16.30
2018-06-22T12:55:35.257Z,16.37
2018-06-22T12:56:35.242Z,16.44
2018-06-22T12:57:35.250Z,16.44
2018-06-22T12:58:35.219Z,16.59
2018-06-22T12:59:35.206Z,16.67
2018-06-22T13:00:35.202Z,16.68